Aviation Digital Data Service (ADDS)

Output produced by METARs form (0711 UTC 24 November 2017)
found at http://aviationweather.gov/adds/metars/
 
KHOU 240537Z 2406/2506 35006KT P6SM FEW250 
     FM242200 18005KT P6SM FEW250